sensor_id;sensor_type;location;lat;lon;timestamp;P1;durP1;ratioP1;P2;durP2;ratioP2
6145;SDS011;3104;50.348;7.620;2023-06-22T00:00:18;11.70;;;10.80;;
6145;SDS011;3104;50.348;7.620;2023-06-22T00:02:45;11.80;;;10.83;;
6145;SDS011;3104;50.348;7.620;2023-06-22T00:05:10;10.83;;;9.93;;
6145;SDS011;3104;50.348;7.620;2023-06-22T00:07:36;8.63;;;8.03;;
6145;SDS011;3104;50.348;7.620;2023-06-22T00:10:01;9.60;;;8.93;;
6145;SDS011;3104;50.348;7.620;2023-06-22T00:12:27;9.17;;;8.37;;
6145;SDS011;3104;50.348;7.620;2023-06-22T00:14:53;7.90;;;7.30;;
6145;SDS011;3104;50.348;7.620;2023-06-22T00:17:18;9.23;;;8.53;;
6145;SDS011;3104;50.348;7.620;2023-06-22T00:19:46;8.77;;;8.10;;
6145;SDS011;3104;50.348;7.620;2023-06-22T00:22:12;8.40;;;7.70;;
6145;SDS011;3104;50.348;7.620;2023-06-22T00:24:38;8.33;;;7.70;;
6145;SDS011;3104;50.348;7.620;2023-06-22T00:27:03;8.17;;;7.57;;
6145;SDS011;3104;50.348;7.620;2023-06-22T00:29:30;9.00;;;8.20;;
6145;SDS011;3104;50.348;7.620;2023-06-22T00:31:56;9.60;;;8.80;;
6145;SDS011;3104;50.348;7.620;2023-06-22T00:34:21;12.50;;;10.47;;
6145;SDS011;3104;50.348;7.620;2023-06-22T00:36:47;10.90;;;10.10;;
6145;SDS011;3104;50.348;7.620;2023-06-22T00:39:13;11.83;;;10.93;;
6145;SDS011;3104;50.348;7.620;2023-06-22T00:41:38;12.53;;;11.37;;
6145;SDS011;3104;50.348;7.620;2023-06-22T00:44:04;11.53;;;10.60;;
6145;SDS011;3104;50.348;7.620;2023-06-22T00:46:30;11.83;;;11.00;;
6145;SDS011;3104;50.348;7.620;2023-06-22T00:48:55;11.00;;;10.00;;
6145;SDS011;3104;50.348;7.620;2023-06-22T00:51:22;10.67;;;9.77;;
6145;SDS011;3104;50.348;7.620;2023-06-22T00:53:49;12.33;;;11.37;;
6145;SDS011;3104;50.348;7.620;2023-06-22T00:56:16;12.10;;;11.30;;
6145;SDS011;3104;50.348;7.620;2023-06-22T00:58:44;11.50;;;10.50;;
6145;SDS011;3104;50.348;7.620;2023-06-22T01:01:12;12.40;;;11.37;;
6145;SDS011;3104;50.348;7.620;2023-06-22T01:03:39;10.93;;;10.00;;
6145;SDS011;3104;50.348;7.620;2023-06-22T01:06:09;11.10;;;10.30;;
6145;SDS011;3104;50.348;7.620;2023-06-22T01:08:57;10.07;;;9.30;;
6145;SDS011;3104;50.348;7.620;2023-06-22T01:11:45;9.87;;;9.00;;
6145;SDS011;3104;50.348;7.620;2023-06-22T01:14:21;9.10;;;8.30;;
6145;SDS011;3104;50.348;7.620;2023-06-22T01:16:52;9.33;;;8.63;;
6145;SDS011;3104;50.348;7.620;2023-06-22T01:19:54;9.63;;;8.93;;
6145;SDS011;3104;50.348;7.620;2023-06-22T01:22:20;10.17;;;9.20;;
6145;SDS011;3104;50.348;7.620;2023-06-22T01:30:16;10.00;;;9.20;;
6145;SDS011;3104;50.348;7.620;2023-06-22T01:32:43;10.80;;;9.80;;
6145;SDS011;3104;50.348;7.620;2023-06-22T01:35:09;11.00;;;10.20;;
6145;SDS011;3104;50.348;7.620;2023-06-22T01:37:36;11.50;;;10.37;;
6145;SDS011;3104;50.348;7.620;2023-06-22T01:40:03;10.07;;;9.20;;
6145;SDS011;3104;50.348;7.620;2023-06-22T01:42:31;9.60;;;8.90;;
6145;SDS011;3104;50.348;7.620;2023-06-22T01:44:57;10.73;;;9.90;;
6145;SDS011;3104;50.348;7.620;2023-06-22T01:47:24;10.90;;;10.10;;
6145;SDS011;3104;50.348;7.620;2023-06-22T01:49:50;11.87;;;10.87;;
6145;SDS011;3104;50.348;7.620;2023-06-22T01:52:16;10.87;;;9.83;;
6145;SDS011;3104;50.348;7.620;2023-06-22T01:54:43;11.83;;;10.73;;
6145;SDS011;3104;50.348;7.620;2023-06-22T01:57:08;10.90;;;10.10;;
6145;SDS011;3104;50.348;7.620;2023-06-22T01:59:37;11.30;;;10.40;;
6145;SDS011;3104;50.348;7.620;2023-06-22T02:02:12;12.53;;;11.43;;
6145;SDS011;3104;50.348;7.620;2023-06-22T02:07:17;10.60;;;9.80;;
6145;SDS011;3104;50.348;7.620;2023-06-22T02:09:44;11.53;;;10.57;;
6145;SDS011;3104;50.348;7.620;2023-06-22T02:12:13;11.00;;;10.10;;
6145;SDS011;3104;50.348;7.620;2023-06-22T02:14:43;10.10;;;9.30;;
6145;SDS011;3104;50.348;7.620;2023-06-22T02:17:11;9.60;;;8.80;;
6145;SDS011;3104;50.348;7.620;2023-06-22T02:19:37;10.90;;;10.00;;
6145;SDS011;3104;50.348;7.620;2023-06-22T02:22:05;11.17;;;10.27;;
6145;SDS011;3104;50.348;7.620;2023-06-22T02:24:31;10.57;;;9.80;;
6145;SDS011;3104;50.348;7.620;2023-06-22T02:26:58;11.83;;;10.93;;
6145;SDS011;3104;50.348;7.620;2023-06-22T02:29:25;12.27;;;11.33;;
6145;SDS011;3104;50.348;7.620;2023-06-22T02:31:52;11.80;;;10.80;;
6145;SDS011;3104;50.348;7.620;2023-06-22T02:34:18;10.90;;;10.10;;
6145;SDS011;3104;50.348;7.620;2023-06-22T02:36:47;12.70;;;11.70;;
6145;SDS011;3104;50.348;7.620;2023-06-22T02:39:25;12.60;;;11.60;;
6145;SDS011;3104;50.348;7.620;2023-06-22T02:41:53;11.20;;;10.40;;
6145;SDS011;3104;50.348;7.620;2023-06-22T02:44:19;11.17;;;10.07;;
6145;SDS011;3104;50.348;7.620;2023-06-22T02:46:46;12.00;;;10.87;;
6145;SDS011;3104;50.348;7.620;2023-06-22T02:49:12;12.10;;;11.00;;
6145;SDS011;3104;50.348;7.620;2023-06-22T02:51:38;11.63;;;10.73;;
6145;SDS011;3104;50.348;7.620;2023-06-22T02:54:07;12.83;;;11.57;;
6145;SDS011;3104;50.348;7.620;2023-06-22T02:56:33;10.53;;;9.73;;
6145;SDS011;3104;50.348;7.620;2023-06-22T02:58:58;12.80;;;11.80;;
6145;SDS011;3104;50.348;7.620;2023-06-22T03:01:29;13.30;;;12.30;;
6145;SDS011;3104;50.348;7.620;2023-06-22T03:04:02;12.80;;;11.80;;
6145;SDS011;3104;50.348;7.620;2023-06-22T03:06:29;10.63;;;9.80;;
6145;SDS011;3104;50.348;7.620;2023-06-22T03:09:04;12.63;;;11.60;;
6145;SDS011;3104;50.348;7.620;2023-06-22T03:11:30;11.70;;;10.80;;
6145;SDS011;3104;50.348;7.620;2023-06-22T03:13:56;10.83;;;9.83;;
6145;SDS011;3104;50.348;7.620;2023-06-22T03:16:22;11.83;;;10.83;;
6145;SDS011;3104;50.348;7.620;2023-06-22T03:18:47;11.23;;;10.33;;
6145;SDS011;3104;50.348;7.620;2023-06-22T03:21:13;10.60;;;9.80;;
6145;SDS011;3104;50.348;7.620;2023-06-22T03:23:40;11.17;;;10.13;;
6145;SDS011;3104;50.348;7.620;2023-06-22T03:26:06;12.37;;;11.47;;
6145;SDS011;3104;50.348;7.620;2023-06-22T03:28:33;10.83;;;10.03;;
6145;SDS011;3104;50.348;7.620;2023-06-22T03:30:59;11.70;;;10.90;;
6145;SDS011;3104;50.348;7.620;2023-06-22T03:33:24;13.17;;;12.10;;
6145;SDS011;3104;50.348;7.620;2023-06-22T03:35:50;12.30;;;11.30;;
6145;SDS011;3104;50.348;7.620;2023-06-22T03:38:16;10.87;;;9.97;;
6145;SDS011;3104;50.348;7.620;2023-06-22T03:40:42;11.23;;;10.30;;
6145;SDS011;3104;50.348;7.620;2023-06-22T03:43:08;11.57;;;10.77;;
6145;SDS011;3104;50.348;7.620;2023-06-22T03:45:34;11.47;;;10.47;;
6145;SDS011;3104;50.348;7.620;2023-06-22T03:48:00;12.63;;;11.53;;
6145;SDS011;3104;50.348;7.620;2023-06-22T03:50:26;10.53;;;9.73;;
6145;SDS011;3104;50.348;7.620;2023-06-22T03:52:51;11.50;;;10.50;;
6145;SDS011;3104;50.348;7.620;2023-06-22T03:55:17;14.00;;;12.80;;
6145;SDS011;3104;50.348;7.620;2023-06-22T03:57:44;22.77;;;20.60;;
6145;SDS011;3104;50.348;7.620;2023-06-22T04:00:10;10.70;;;9.80;;
6145;SDS011;3104;50.348;7.620;2023-06-22T04:02:36;10.63;;;9.70;;
6145;SDS011;3104;50.348;7.620;2023-06-22T04:05:01;10.90;;;10.00;;
6145;SDS011;3104;50.348;7.620;2023-06-22T04:07:27;11.47;;;10.47;;
6145;SDS011;3104;50.348;7.620;2023-06-22T04:09:52;10.43;;;9.43;;
6145;SDS011;3104;50.348;7.620;2023-06-22T04:12:18;11.13;;;9.90;;
6145;SDS011;3104;50.348;7.620;2023-06-22T04:14:43;10.83;;;10.03;;
6145;SDS011;3104;50.348;7.620;2023-06-22T04:17:09;11.30;;;10.50;;
6145;SDS011;3104;50.348;7.620;2023-06-22T04:19:35;16.93;;;15.50;;
6145;SDS011;3104;50.348;7.620;2023-06-22T04:22:00;14.70;;;13.50;;
6145;SDS011;3104;50.348;7.620;2023-06-22T04:24:26;11.03;;;10.17;;
6145;SDS011;3104;50.348;7.620;2023-06-22T04:26:52;10.93;;;10.03;;
6145;SDS011;3104;50.348;7.620;2023-06-22T04:29:19;12.10;;;11.10;;
6145;SDS011;3104;50.348;7.620;2023-06-22T04:31:46;11.70;;;10.60;;
6145;SDS011;3104;50.348;7.620;2023-06-22T04:34:15;11.90;;;10.93;;
6145;SDS011;3104;50.348;7.620;2023-06-22T04:36:41;11.07;;;10.03;;
6145;SDS011;3104;50.348;7.620;2023-06-22T04:39:08;9.53;;;8.83;;
6145;SDS011;3104;50.348;7.620;2023-06-22T04:41:40;11.37;;;10.27;;
6145;SDS011;3104;50.348;7.620;2023-06-22T04:46:49;11.13;;;10.20;;
6145;SDS011;3104;50.348;7.620;2023-06-22T04:49:19;11.60;;;10.70;;
6145;SDS011;3104;50.348;7.620;2023-06-22T04:51:47;11.03;;;10.13;;
6145;SDS011;3104;50.348;7.620;2023-06-22T04:54:13;10.53;;;9.53;;
6145;SDS011;3104;50.348;7.620;2023-06-22T04:56:38;11.10;;;10.20;;
6145;SDS011;3104;50.348;7.620;2023-06-22T04:59:05;11.00;;;10.00;;
6145;SDS011;3104;50.348;7.620;2023-06-22T05:01:32;10.93;;;10.10;;
6145;SDS011;3104;50.348;7.620;2023-06-22T05:03:57;11.50;;;10.60;;
6145;SDS011;3104;50.348;7.620;2023-06-22T05:06:26;11.30;;;10.30;;
6145;SDS011;3104;50.348;7.620;2023-06-22T05:08:55;12.13;;;11.13;;
6145;SDS011;3104;50.348;7.620;2023-06-22T05:11:27;11.50;;;10.40;;
6145;SDS011;3104;50.348;7.620;2023-06-22T05:13:53;11.97;;;11.00;;
6145;SDS011;3104;50.348;7.620;2023-06-22T05:16:20;12.87;;;11.93;;
6145;SDS011;3104;50.348;7.620;2023-06-22T05:18:54;12.07;;;11.13;;
6145;SDS011;3104;50.348;7.620;2023-06-22T05:21:24;10.93;;;10.13;;
6145;SDS011;3104;50.348;7.620;2023-06-22T05:23:52;12.27;;;11.30;;
6145;SDS011;3104;50.348;7.620;2023-06-22T05:26:18;11.53;;;10.50;;
6145;SDS011;3104;50.348;7.620;2023-06-22T05:28:45;12.97;;;11.83;;
6145;SDS011;3104;50.348;7.620;2023-06-22T05:31:14;10.80;;;10.00;;
6145;SDS011;3104;50.348;7.620;2023-06-22T05:33:41;10.90;;;9.93;;
6145;SDS011;3104;50.348;7.620;2023-06-22T05:36:07;11.50;;;10.50;;
6145;SDS011;3104;50.348;7.620;2023-06-22T05:38:34;11.30;;;10.30;;
6145;SDS011;3104;50.348;7.620;2023-06-22T05:40:59;11.57;;;10.67;;
6145;SDS011;3104;50.348;7.620;2023-06-22T05:43:25;11.80;;;10.90;;
6145;SDS011;3104;50.348;7.620;2023-06-22T05:45:51;11.17;;;10.30;;
6145;SDS011;3104;50.348;7.620;2023-06-22T05:48:16;11.47;;;10.60;;
6145;SDS011;3104;50.348;7.620;2023-06-22T05:50:42;9.93;;;9.23;;
6145;SDS011;3104;50.348;7.620;2023-06-22T05:53:08;11.00;;;10.10;;
6145;SDS011;3104;50.348;7.620;2023-06-22T05:55:33;11.53;;;10.63;;
6145;SDS011;3104;50.348;7.620;2023-06-22T05:57:59;12.03;;;10.93;;
6145;SDS011;3104;50.348;7.620;2023-06-22T06:00:25;11.30;;;10.50;;
6145;SDS011;3104;50.348;7.620;2023-06-22T06:02:50;12.63;;;11.70;;
6145;SDS011;3104;50.348;7.620;2023-06-22T06:05:16;10.70;;;9.90;;
6145;SDS011;3104;50.348;7.620;2023-06-22T06:07:42;12.73;;;11.87;;
6145;SDS011;3104;50.348;7.620;2023-06-22T06:10:08;11.03;;;10.03;;
6145;SDS011;3104;50.348;7.620;2023-06-22T06:12:34;10.80;;;10.10;;
6145;SDS011;3104;50.348;7.620;2023-06-22T06:15:00;12.20;;;11.20;;
6145;SDS011;3104;50.348;7.620;2023-06-22T06:17:26;10.67;;;9.87;;
6145;SDS011;3104;50.348;7.620;2023-06-22T06:19:52;10.83;;;9.93;;
6145;SDS011;3104;50.348;7.620;2023-06-22T06:22:17;10.90;;;10.10;;
6145;SDS011;3104;50.348;7.620;2023-06-22T06:24:44;11.97;;;10.80;;
6145;SDS011;3104;50.348;7.620;2023-06-22T06:27:10;11.53;;;10.73;;
6145;SDS011;3104;50.348;7.620;2023-06-22T06:29:36;11.70;;;10.70;;
6145;SDS011;3104;50.348;7.620;2023-06-22T06:32:01;11.17;;;10.07;;
6145;SDS011;3104;50.348;7.620;2023-06-22T06:34:27;11.60;;;10.57;;
6145;SDS011;3104;50.348;7.620;2023-06-22T06:36:53;10.63;;;9.60;;
6145;SDS011;3104;50.348;7.620;2023-06-22T06:39:18;10.87;;;10.07;;
6145;SDS011;3104;50.348;7.620;2023-06-22T06:41:45;10.67;;;9.90;;
6145;SDS011;3104;50.348;7.620;2023-06-22T06:44:11;10.40;;;9.70;;
6145;SDS011;3104;50.348;7.620;2023-06-22T06:46:36;11.73;;;10.83;;
6145;SDS011;3104;50.348;7.620;2023-06-22T06:49:02;11.10;;;10.30;;
6145;SDS011;3104;50.348;7.620;2023-06-22T06:51:28;11.57;;;10.77;;
6145;SDS011;3104;50.348;7.620;2023-06-22T06:53:54;10.93;;;10.13;;
6145;SDS011;3104;50.348;7.620;2023-06-22T06:56:20;11.50;;;10.60;;
6145;SDS011;3104;50.348;7.620;2023-06-22T06:58:45;10.90;;;10.10;;
6145;SDS011;3104;50.348;7.620;2023-06-22T07:01:14;10.30;;;9.60;;
6145;SDS011;3104;50.348;7.620;2023-06-22T07:03:42;11.13;;;10.17;;
6145;SDS011;3104;50.348;7.620;2023-06-22T07:06:08;11.50;;;10.30;;
6145;SDS011;3104;50.348;7.620;2023-06-22T07:08:34;10.50;;;9.60;;
6145;SDS011;3104;50.348;7.620;2023-06-22T07:11:01;12.47;;;11.47;;
6145;SDS011;3104;50.348;7.620;2023-06-22T07:13:27;11.57;;;10.77;;
6145;SDS011;3104;50.348;7.620;2023-06-22T07:15:52;11.10;;;10.30;;
6145;SDS011;3104;50.348;7.620;2023-06-22T07:18:18;10.43;;;9.73;;
6145;SDS011;3104;50.348;7.620;2023-06-22T07:20:44;11.67;;;10.77;;
6145;SDS011;3104;50.348;7.620;2023-06-22T07:23:09;10.27;;;9.57;;
6145;SDS011;3104;50.348;7.620;2023-06-22T07:25:35;11.30;;;10.30;;
6145;SDS011;3104;50.348;7.620;2023-06-22T07:28:01;11.03;;;10.23;;
6145;SDS011;3104;50.348;7.620;2023-06-22T07:30:29;13.30;;;12.27;;
6145;SDS011;3104;50.348;7.620;2023-06-22T07:32:56;10.77;;;9.97;;
6145;SDS011;3104;50.348;7.620;2023-06-22T07:35:22;11.03;;;10.03;;
6145;SDS011;3104;50.348;7.620;2023-06-22T07:37:48;10.23;;;9.43;;
6145;SDS011;3104;50.348;7.620;2023-06-22T07:40:14;11.30;;;10.27;;
6145;SDS011;3104;50.348;7.620;2023-06-22T07:42:39;10.50;;;9.80;;
6145;SDS011;3104;50.348;7.620;2023-06-22T07:45:05;10.80;;;9.83;;
6145;SDS011;3104;50.348;7.620;2023-06-22T07:47:33;12.10;;;11.20;;
6145;SDS011;3104;50.348;7.620;2023-06-22T07:50:02;9.77;;;9.00;;
6145;SDS011;3104;50.348;7.620;2023-06-22T07:52:28;11.60;;;10.77;;
6145;SDS011;3104;50.348;7.620;2023-06-22T07:54:54;11.30;;;10.30;;
6145;SDS011;3104;50.348;7.620;2023-06-22T07:57:20;11.30;;;10.40;;
6145;SDS011;3104;50.348;7.620;2023-06-22T07:59:46;10.70;;;10.00;;
6145;SDS011;3104;50.348;7.620;2023-06-22T08:02:11;10.47;;;9.57;;
6145;SDS011;3104;50.348;7.620;2023-06-22T08:04:38;11.60;;;10.60;;
6145;SDS011;3104;50.348;7.620;2023-06-22T08:07:04;11.23;;;10.43;;
6145;SDS011;3104;50.348;7.620;2023-06-22T08:09:31;11.30;;;10.40;;
6145;SDS011;3104;50.348;7.620;2023-06-22T08:11:58;11.83;;;11.03;;
6145;SDS011;3104;50.348;7.620;2023-06-22T08:14:27;10.60;;;9.90;;
6145;SDS011;3104;50.348;7.620;2023-06-22T08:16:54;11.80;;;10.80;;
6145;SDS011;3104;50.348;7.620;2023-06-22T08:19:20;11.43;;;10.63;;
6145;SDS011;3104;50.348;7.620;2023-06-22T08:21:46;10.47;;;9.77;;
6145;SDS011;3104;50.348;7.620;2023-06-22T08:24:11;11.13;;;10.40;;
6145;SDS011;3104;50.348;7.620;2023-06-22T08:26:37;11.47;;;10.57;;
6145;SDS011;3104;50.348;7.620;2023-06-22T08:29:03;11.60;;;10.70;;
6145;SDS011;3104;50.348;7.620;2023-06-22T08:31:29;12.17;;;11.23;;
6145;SDS011;3104;50.348;7.620;2023-06-22T08:33:55;10.50;;;9.80;;
6145;SDS011;3104;50.348;7.620;2023-06-22T08:36:21;11.00;;;10.20;;
6145;SDS011;3104;50.348;7.620;2023-06-22T08:38:47;10.80;;;10.00;;
6145;SDS011;3104;50.348;7.620;2023-06-22T08:41:16;11.50;;;10.60;;
6145;SDS011;3104;50.348;7.620;2023-06-22T08:43:42;11.43;;;10.53;;
6145;SDS011;3104;50.348;7.620;2023-06-22T08:46:09;11.20;;;10.27;;
6145;SDS011;3104;50.348;7.620;2023-06-22T08:48:35;11.13;;;10.03;;
6145;SDS011;3104;50.348;7.620;2023-06-22T08:51:01;10.77;;;9.97;;
6145;SDS011;3104;50.348;7.620;2023-06-22T08:53:28;11.80;;;10.80;;
6145;SDS011;3104;50.348;7.620;2023-06-22T08:55:53;11.23;;;10.30;;
6145;SDS011;3104;50.348;7.620;2023-06-22T08:58:19;11.00;;;10.20;;
6145;SDS011;3104;50.348;7.620;2023-06-22T09:00:46;11.80;;;10.80;;
6145;SDS011;3104;50.348;7.620;2023-06-22T09:03:12;11.00;;;10.30;;
6145;SDS011;3104;50.348;7.620;2023-06-22T09:05:38;11.60;;;10.80;;
6145;SDS011;3104;50.348;7.620;2023-06-22T09:08:03;11.50;;;10.70;;
6145;SDS011;3104;50.348;7.620;2023-06-22T09:10:29;12.23;;;11.23;;
6145;SDS011;3104;50.348;7.620;2023-06-22T09:12:54;11.23;;;10.40;;
6145;SDS011;3104;50.348;7.620;2023-06-22T09:15:20;11.10;;;10.30;;
6145;SDS011;3104;50.348;7.620;2023-06-22T09:17:46;10.20;;;9.53;;
6145;SDS011;3104;50.348;7.620;2023-06-22T09:20:11;10.47;;;9.77;;
6145;SDS011;3104;50.348;7.620;2023-06-22T09:22:37;11.70;;;10.80;;
6145;SDS011;3104;50.348;7.620;2023-06-22T09:25:03;11.57;;;10.40;;
6145;SDS011;3104;50.348;7.620;2023-06-22T09:27:29;11.43;;;10.60;;
6145;SDS011;3104;50.348;7.620;2023-06-22T09:29:55;12.00;;;10.80;;
6145;SDS011;3104;50.348;7.620;2023-06-22T09:32:23;11.80;;;10.80;;
6145;SDS011;3104;50.348;7.620;2023-06-22T09:34:49;11.63;;;10.83;;
6145;SDS011;3104;50.348;7.620;2023-06-22T09:37:14;11.77;;;10.97;;
6145;SDS011;3104;50.348;7.620;2023-06-22T09:39:40;11.57;;;10.67;;
6145;SDS011;3104;50.348;7.620;2023-06-22T09:42:05;11.50;;;10.70;;
6145;SDS011;3104;50.348;7.620;2023-06-22T09:44:31;11.53;;;10.73;;
6145;SDS011;3104;50.348;7.620;2023-06-22T09:46:57;10.87;;;10.07;;
6145;SDS011;3104;50.348;7.620;2023-06-22T09:49:22;10.87;;;10.07;;
6145;SDS011;3104;50.348;7.620;2023-06-22T09:51:48;11.77;;;10.87;;
6145;SDS011;3104;50.348;7.620;2023-06-22T09:54:15;11.33;;;10.50;;
6145;SDS011;3104;50.348;7.620;2023-06-22T09:56:41;10.43;;;9.70;;
6145;SDS011;3104;50.348;7.620;2023-06-22T09:59:07;11.73;;;10.87;;
6145;SDS011;3104;50.348;7.620;2023-06-22T10:01:32;11.67;;;10.87;;
6145;SDS011;3104;50.348;7.620;2023-06-22T10:03:58;11.30;;;10.50;;
6145;SDS011;3104;50.348;7.620;2023-06-22T10:06:23;11.57;;;10.63;;
6145;SDS011;3104;50.348;7.620;2023-06-22T10:08:50;11.50;;;10.70;;
6145;SDS011;3104;50.348;7.620;2023-06-22T10:11:16;12.10;;;11.30;;
6145;SDS011;3104;50.348;7.620;2023-06-22T10:13:42;11.10;;;10.20;;
6145;SDS011;3104;50.348;7.620;2023-06-22T10:16:08;11.57;;;10.73;;
6145;SDS011;3104;50.348;7.620;2023-06-22T10:18:33;12.50;;;11.50;;
6145;SDS011;3104;50.348;7.620;2023-06-22T10:20:59;11.43;;;10.60;;
6145;SDS011;3104;50.348;7.620;2023-06-22T10:23:25;12.33;;;11.43;;
6145;SDS011;3104;50.348;7.620;2023-06-22T10:25:50;12.73;;;11.73;;
6145;SDS011;3104;50.348;7.620;2023-06-22T10:28:16;16.50;;;14.90;;
6145;SDS011;3104;50.348;7.620;2023-06-22T10:30:42;13.93;;;12.53;;
6145;SDS011;3104;50.348;7.620;2023-06-22T10:33:08;13.43;;;12.33;;
6145;SDS011;3104;50.348;7.620;2023-06-22T10:35:35;13.67;;;12.67;;
6145;SDS011;3104;50.348;7.620;2023-06-22T10:38:02;14.10;;;13.10;;
6145;SDS011;3104;50.348;7.620;2023-06-22T10:40:28;14.43;;;13.33;;
6145;SDS011;3104;50.348;7.620;2023-06-22T10:42:54;14.73;;;13.53;;
6145;SDS011;3104;50.348;7.620;2023-06-22T10:45:19;15.13;;;13.93;;
6145;SDS011;3104;50.348;7.620;2023-06-22T10:47:45;13.90;;;12.90;;
6145;SDS011;3104;50.348;7.620;2023-06-22T10:50:11;15.20;;;13.93;;
6145;SDS011;3104;50.348;7.620;2023-06-22T10:52:37;14.23;;;13.00;;
6145;SDS011;3104;50.348;7.620;2023-06-22T10:55:02;15.13;;;13.80;;
6145;SDS011;3104;50.348;7.620;2023-06-22T10:57:28;14.07;;;12.90;;
6145;SDS011;3104;50.348;7.620;2023-06-22T10:59:54;15.10;;;13.80;;
6145;SDS011;3104;50.348;7.620;2023-06-22T11:02:20;16.00;;;14.80;;
6145;SDS011;3104;50.348;7.620;2023-06-22T11:04:45;14.73;;;13.30;;
6145;SDS011;3104;50.348;7.620;2023-06-22T11:07:12;15.07;;;13.97;;
6145;SDS011;3104;50.348;7.620;2023-06-22T11:09:38;14.20;;;13.00;;
6145;SDS011;3104;50.348;7.620;2023-06-22T11:12:04;13.80;;;12.90;;
6145;SDS011;3104;50.348;7.620;2023-06-22T11:14:31;14.17;;;13.17;;
6145;SDS011;3104;50.348;7.620;2023-06-22T11:16:58;14.00;;;12.83;;
6145;SDS011;3104;50.348;7.620;2023-06-22T11:19:24;14.80;;;13.57;;
6145;SDS011;3104;50.348;7.620;2023-06-22T11:21:49;13.60;;;12.60;;
6145;SDS011;3104;50.348;7.620;2023-06-22T11:24:16;14.37;;;13.07;;
6145;SDS011;3104;50.348;7.620;2023-06-22T11:26:41;13.00;;;12.10;;
6145;SDS011;3104;50.348;7.620;2023-06-22T11:29:07;13.37;;;12.30;;
6145;SDS011;3104;50.348;7.620;2023-06-22T11:31:34;14.70;;;13.40;;
6145;SDS011;3104;50.348;7.620;2023-06-22T11:34:00;14.60;;;13.50;;
6145;SDS011;3104;50.348;7.620;2023-06-22T11:36:26;15.07;;;13.70;;
6145;SDS011;3104;50.348;7.620;2023-06-22T11:38:51;14.80;;;13.50;;
6145;SDS011;3104;50.348;7.620;2023-06-22T11:41:17;14.37;;;13.30;;
6145;SDS011;3104;50.348;7.620;2023-06-22T11:43:43;14.23;;;13.13;;
6145;SDS011;3104;50.348;7.620;2023-06-22T11:46:09;14.53;;;13.33;;
6145;SDS011;3104;50.348;7.620;2023-06-22T11:48:35;14.50;;;13.20;;
6145;SDS011;3104;50.348;7.620;2023-06-22T11:51:01;14.47;;;13.40;;
6145;SDS011;3104;50.348;7.620;2023-06-22T11:53:28;13.93;;;12.90;;
6145;SDS011;3104;50.348;7.620;2023-06-22T11:55:54;13.77;;;12.67;;
6145;SDS011;3104;50.348;7.620;2023-06-22T11:58:20;14.67;;;13.57;;
6145;SDS011;3104;50.348;7.620;2023-06-22T12:00:46;13.37;;;12.47;;
6145;SDS011;3104;50.348;7.620;2023-06-22T12:03:11;14.17;;;13.07;;
6145;SDS011;3104;50.348;7.620;2023-06-22T12:05:37;14.17;;;13.17;;
6145;SDS011;3104;50.348;7.620;2023-06-22T12:08:04;14.77;;;13.60;;
6145;SDS011;3104;50.348;7.620;2023-06-22T12:10:29;12.90;;;11.97;;
6145;SDS011;3104;50.348;7.620;2023-06-22T12:12:55;15.63;;;14.23;;
6145;SDS011;3104;50.348;7.620;2023-06-22T12:15:22;14.53;;;13.37;;
6145;SDS011;3104;50.348;7.620;2023-06-22T12:17:48;14.10;;;13.00;;
6145;SDS011;3104;50.348;7.620;2023-06-22T12:20:14;15.70;;;14.60;;
6145;SDS011;3104;50.348;7.620;2023-06-22T12:22:40;14.97;;;13.50;;
6145;SDS011;3104;50.348;7.620;2023-06-22T12:25:07;15.43;;;14.33;;
6145;SDS011;3104;50.348;7.620;2023-06-22T12:27:34;15.97;;;14.77;;
6145;SDS011;3104;50.348;7.620;2023-06-22T12:30:00;13.97;;;12.97;;
6145;SDS011;3104;50.348;7.620;2023-06-22T12:32:26;14.03;;;12.90;;
6145;SDS011;3104;50.348;7.620;2023-06-22T12:34:51;14.10;;;13.10;;
6145;SDS011;3104;50.348;7.620;2023-06-22T12:37:17;14.30;;;13.10;;
6145;SDS011;3104;50.348;7.620;2023-06-22T12:39:43;13.87;;;12.80;;
6145;SDS011;3104;50.348;7.620;2023-06-22T12:42:08;15.10;;;14.10;;
6145;SDS011;3104;50.348;7.620;2023-06-22T12:44:35;17.80;;;16.60;;
6145;SDS011;3104;50.348;7.620;2023-06-22T12:47:00;15.47;;;14.40;;
6145;SDS011;3104;50.348;7.620;2023-06-22T12:49:26;13.77;;;12.77;;
6145;SDS011;3104;50.348;7.620;2023-06-22T12:51:52;16.93;;;15.50;;
6145;SDS011;3104;50.348;7.620;2023-06-22T12:54:17;15.20;;;13.80;;
6145;SDS011;3104;50.348;7.620;2023-06-22T12:56:43;13.87;;;12.77;;
6145;SDS011;3104;50.348;7.620;2023-06-22T12:59:10;14.27;;;13.20;;
6145;SDS011;3104;50.348;7.620;2023-06-22T13:01:35;14.30;;;13.20;;
6145;SDS011;3104;50.348;7.620;2023-06-22T13:04:02;13.90;;;12.90;;
6145;SDS011;3104;50.348;7.620;2023-06-22T13:06:28;12.83;;;11.73;;
6145;SDS011;3104;50.348;7.620;2023-06-22T13:08:53;14.80;;;13.70;;
6145;SDS011;3104;50.348;7.620;2023-06-22T13:11:20;14.87;;;13.77;;
6145;SDS011;3104;50.348;7.620;2023-06-22T13:13:46;13.00;;;12.10;;
6145;SDS011;3104;50.348;7.620;2023-06-22T13:16:11;14.80;;;13.80;;
6145;SDS011;3104;50.348;7.620;2023-06-22T13:18:37;13.07;;;11.80;;
6145;SDS011;3104;50.348;7.620;2023-06-22T13:21:03;14.00;;;12.90;;
6145;SDS011;3104;50.348;7.620;2023-06-22T13:23:29;14.27;;;12.97;;
6145;SDS011;3104;50.348;7.620;2023-06-22T13:25:55;12.80;;;11.90;;
6145;SDS011;3104;50.348;7.620;2023-06-22T13:28:21;13.30;;;12.20;;
6145;SDS011;3104;50.348;7.620;2023-06-22T13:30:47;12.90;;;11.87;;
6145;SDS011;3104;50.348;7.620;2023-06-22T13:33:13;12.10;;;11.20;;
6145;SDS011;3104;50.348;7.620;2023-06-22T13:35:39;13.17;;;12.17;;
6145;SDS011;3104;50.348;7.620;2023-06-22T13:38:07;12.83;;;11.93;;
6145;SDS011;3104;50.348;7.620;2023-06-22T13:40:33;13.03;;;12.13;;
6145;SDS011;3104;50.348;7.620;2023-06-22T13:42:59;13.40;;;12.33;;
6145;SDS011;3104;50.348;7.620;2023-06-22T13:45:25;14.43;;;13.03;;
6145;SDS011;3104;50.348;7.620;2023-06-22T13:47:51;12.10;;;11.27;;
6145;SDS011;3104;50.348;7.620;2023-06-22T13:50:16;12.80;;;11.90;;
6145;SDS011;3104;50.348;7.620;2023-06-22T13:52:42;13.23;;;12.13;;
6145;SDS011;3104;50.348;7.620;2023-06-22T13:55:08;22.90;;;21.03;;
6145;SDS011;3104;50.348;7.620;2023-06-22T13:57:34;13.43;;;12.13;;
6145;SDS011;3104;50.348;7.620;2023-06-22T14:00:00;13.17;;;12.13;;
6145;SDS011;3104;50.348;7.620;2023-06-22T14:02:26;13.43;;;12.43;;
6145;SDS011;3104;50.348;7.620;2023-06-22T14:04:52;21.47;;;19.97;;
6145;SDS011;3104;50.348;7.620;2023-06-22T14:07:18;14.67;;;13.57;;
6145;SDS011;3104;50.348;7.620;2023-06-22T14:09:47;17.47;;;16.17;;
6145;SDS011;3104;50.348;7.620;2023-06-22T14:12:13;21.07;;;19.47;;
6145;SDS011;3104;50.348;7.620;2023-06-22T14:14:38;13.90;;;12.90;;
6145;SDS011;3104;50.348;7.620;2023-06-22T14:17:04;12.90;;;11.90;;
6145;SDS011;3104;50.348;7.620;2023-06-22T14:19:30;13.20;;;12.07;;
6145;SDS011;3104;50.348;7.620;2023-06-22T14:21:56;12.03;;;11.23;;
6145;SDS011;3104;50.348;7.620;2023-06-22T14:24:22;7.60;;;6.90;;
6145;SDS011;3104;50.348;7.620;2023-06-22T14:26:48;13.63;;;4.73;;
6145;SDS011;3104;50.348;7.620;2023-06-22T14:29:14;7.87;;;4.83;;
6145;SDS011;3104;50.348;7.620;2023-06-22T14:31:39;10.80;;;5.13;;
6145;SDS011;3104;50.348;7.620;2023-06-22T14:34:05;6.30;;;4.77;;
6145;SDS011;3104;50.348;7.620;2023-06-22T14:36:31;6.03;;;5.00;;
6145;SDS011;3104;50.348;7.620;2023-06-22T14:38:56;5.97;;;5.17;;
6145;SDS011;3104;50.348;7.620;2023-06-22T14:41:22;12.97;;;6.87;;
6145;SDS011;3104;50.348;7.620;2023-06-22T14:43:48;6.83;;;6.10;;
6145;SDS011;3104;50.348;7.620;2023-06-22T14:46:15;5.90;;;5.13;;
6145;SDS011;3104;50.348;7.620;2023-06-22T14:48:41;4.27;;;3.87;;
6145;SDS011;3104;50.348;7.620;2023-06-22T14:51:07;5.20;;;4.10;;
6145;SDS011;3104;50.348;7.620;2023-06-22T14:53:34;5.17;;;3.67;;
6145;SDS011;3104;50.348;7.620;2023-06-22T14:56:00;5.53;;;4.53;;
6145;SDS011;3104;50.348;7.620;2023-06-22T14:58:27;6.53;;;5.40;;